sensor_id;sensor_type;location;lat;lon;timestamp;temperature;humidity
39095;DHT22;24840;47.508;19.376;2023-10-09T00:02:11;4.20;99.90
39095;DHT22;24840;47.508;19.376;2023-10-09T00:04:38;4.20;99.90
39095;DHT22;24840;47.508;19.376;2023-10-09T00:07:07;4.20;99.90
39095;DHT22;24840;47.508;19.376;2023-10-09T00:09:34;4.30;99.90
39095;DHT22;24840;47.508;19.376;2023-10-09T00:12:15;4.30;99.90
39095;DHT22;24840;47.508;19.376;2023-10-09T00:14:42;4.30;99.90
39095;DHT22;24840;47.508;19.376;2023-10-09T00:17:14;4.20;99.90
39095;DHT22;24840;47.508;19.376;2023-10-09T00:19:40;4.20;99.90
39095;DHT22;24840;47.508;19.376;2023-10-09T00:22:08;4.30;99.90
39095;DHT22;24840;47.508;19.376;2023-10-09T00:24:45;4.20;99.90
39095;DHT22;24840;47.508;19.376;2023-10-09T00:27:15;4.20;99.90
39095;DHT22;24840;47.508;19.376;2023-10-09T00:29:44;4.30;99.90
39095;DHT22;24840;47.508;19.376;2023-10-09T00:32:14;4.40;99.90
39095;DHT22;24840;47.508;19.376;2023-10-09T00:34:53;4.50;99.90
39095;DHT22;24840;47.508;19.376;2023-10-09T00:37:23;4.50;99.90
39095;DHT22;24840;47.508;19.376;2023-10-09T00:39:51;4.40;99.90
39095;DHT22;24840;47.508;19.376;2023-10-09T00:42:26;4.40;99.90
39095;DHT22;24840;47.508;19.376;2023-10-09T00:44:59;4.30;99.90
39095;DHT22;24840;47.508;19.376;2023-10-09T00:47:35;4.40;99.90
39095;DHT22;24840;47.508;19.376;2023-10-09T00:50:08;4.40;99.90
39095;DHT22;24840;47.508;19.376;2023-10-09T00:52:52;4.40;99.90
39095;DHT22;24840;47.508;19.376;2023-10-09T00:55:27;4.50;99.90
39095;DHT22;24840;47.508;19.376;2023-10-09T00:58:03;4.60;99.90
39095;DHT22;24840;47.508;19.376;2023-10-09T01:00:35;4.70;99.90
39095;DHT22;24840;47.508;19.376;2023-10-09T01:03:16;4.70;99.90
39095;DHT22;24840;47.508;19.376;2023-10-09T01:05:51;4.60;99.90
39095;DHT22;24840;47.508;19.376;2023-10-09T01:08:24;4.80;99.90
39095;DHT22;24840;47.508;19.376;2023-10-09T01:10:58;4.90;99.90
39095;DHT22;24840;47.508;19.376;2023-10-09T01:13:39;4.90;99.90
39095;DHT22;24840;47.508;19.376;2023-10-09T01:16:18;5.00;99.90
39095;DHT22;24840;47.508;19.376;2023-10-09T01:18:45;5.20;99.90
39095;DHT22;24840;47.508;19.376;2023-10-09T01:21:14;5.10;99.90
39095;DHT22;24840;47.508;19.376;2023-10-09T01:23:45;5.10;99.90
39095;DHT22;24840;47.508;19.376;2023-10-09T01:26:39;5.10;99.90
39095;DHT22;24840;47.508;19.376;2023-10-09T01:29:09;5.10;99.90
39095;DHT22;24840;47.508;19.376;2023-10-09T01:31:44;5.20;99.90
39095;DHT22;24840;47.508;19.376;2023-10-09T01:34:33;5.40;99.90
39095;DHT22;24840;47.508;19.376;2023-10-09T01:37:27;5.50;99.90
39095;DHT22;24840;47.508;19.376;2023-10-09T01:39:58;5.50;99.90
39095;DHT22;24840;47.508;19.376;2023-10-09T01:42:25;5.40;99.90
39095;DHT22;24840;47.508;19.376;2023-10-09T01:45:01;5.60;99.90
39095;DHT22;24840;47.508;19.376;2023-10-09T01:47:44;5.60;99.90
39095;DHT22;24840;47.508;19.376;2023-10-09T01:50:23;5.60;99.90
39095;DHT22;24840;47.508;19.376;2023-10-09T01:52:58;5.50;99.90
39095;DHT22;24840;47.508;19.376;2023-10-09T01:55:27;5.50;99.90
39095;DHT22;24840;47.508;19.376;2023-10-09T01:58:04;5.50;99.90
39095;DHT22;24840;47.508;19.376;2023-10-09T02:00:43;5.60;99.90
39095;DHT22;24840;47.508;19.376;2023-10-09T02:03:13;5.70;99.90
39095;DHT22;24840;47.508;19.376;2023-10-09T02:05:49;5.70;99.90
39095;DHT22;24840;47.508;19.376;2023-10-09T02:08:30;5.70;99.90
39095;DHT22;24840;47.508;19.376;2023-10-09T02:10:56;5.70;99.90
39095;DHT22;24840;47.508;19.376;2023-10-09T02:13:24;5.70;99.90
39095;DHT22;24840;47.508;19.376;2023-10-09T02:16:00;5.70;99.90
39095;DHT22;24840;47.508;19.376;2023-10-09T02:18:42;5.90;99.90
39095;DHT22;24840;47.508;19.376;2023-10-09T02:21:22;5.90;99.90
39095;DHT22;24840;47.508;19.376;2023-10-09T02:23:58;5.90;99.90
39095;DHT22;24840;47.508;19.376;2023-10-09T02:26:28;6.00;99.90
39095;DHT22;24840;47.508;19.376;2023-10-09T02:29:14;6.00;99.90
39095;DHT22;24840;47.508;19.376;2023-10-09T02:31:39;5.90;99.90
39095;DHT22;24840;47.508;19.376;2023-10-09T02:34:17;6.00;99.90
39095;DHT22;24840;47.508;19.376;2023-10-09T02:36:53;5.90;99.90
39095;DHT22;24840;47.508;19.376;2023-10-09T02:39:31;5.90;99.90
39095;DHT22;24840;47.508;19.376;2023-10-09T02:42:02;5.80;99.90
39095;DHT22;24840;47.508;19.376;2023-10-09T02:44:49;5.90;99.90
39095;DHT22;24840;47.508;19.376;2023-10-09T02:47:17;6.00;99.90
39095;DHT22;24840;47.508;19.376;2023-10-09T02:49:49;6.10;99.90
39095;DHT22;24840;47.508;19.376;2023-10-09T02:52:16;6.20;99.90
39095;DHT22;24840;47.508;19.376;2023-10-09T02:54:53;6.30;99.90
39095;DHT22;24840;47.508;19.376;2023-10-09T02:57:27;6.30;99.90
39095;DHT22;24840;47.508;19.376;2023-10-09T03:00:11;6.40;99.90
39095;DHT22;24840;47.508;19.376;2023-10-09T03:02:44;6.30;99.90
39095;DHT22;24840;47.508;19.376;2023-10-09T03:05:16;6.30;99.90
39095;DHT22;24840;47.508;19.376;2023-10-09T03:07:42;6.40;99.90
39095;DHT22;24840;47.508;19.376;2023-10-09T03:10:08;6.40;99.90
39095;DHT22;24840;47.508;19.376;2023-10-09T03:12:35;6.50;99.90
39095;DHT22;24840;47.508;19.376;2023-10-09T03:15:02;6.60;99.90
39095;DHT22;24840;47.508;19.376;2023-10-09T03:17:31;6.50;99.90
39095;DHT22;24840;47.508;19.376;2023-10-09T03:20:05;6.60;99.90
39095;DHT22;24840;47.508;19.376;2023-10-09T03:22:38;6.60;99.90
39095;DHT22;24840;47.508;19.376;2023-10-09T03:25:05;6.80;99.90
39095;DHT22;24840;47.508;19.376;2023-10-09T03:27:39;6.70;99.90
39095;DHT22;24840;47.508;19.376;2023-10-09T03:30:08;6.70;99.90
39095;DHT22;24840;47.508;19.376;2023-10-09T03:32:35;6.60;99.90
39095;DHT22;24840;47.508;19.376;2023-10-09T03:35:01;6.60;99.90
39095;DHT22;24840;47.508;19.376;2023-10-09T03:37:28;6.80;99.90
39095;DHT22;24840;47.508;19.376;2023-10-09T03:40:01;7.00;99.90
39095;DHT22;24840;47.508;19.376;2023-10-09T03:42:27;7.00;99.90
39095;DHT22;24840;47.508;19.376;2023-10-09T03:44:55;7.10;99.90
39095;DHT22;24840;47.508;19.376;2023-10-09T03:47:23;7.10;99.90
39095;DHT22;24840;47.508;19.376;2023-10-09T03:49:52;7.00;99.90
39095;DHT22;24840;47.508;19.376;2023-10-09T03:52:19;7.10;99.90
39095;DHT22;24840;47.508;19.376;2023-10-09T03:54:45;7.20;99.90
39095;DHT22;24840;47.508;19.376;2023-10-09T03:57:14;7.10;99.90
39095;DHT22;24840;47.508;19.376;2023-10-09T03:59:47;7.10;99.90
39095;DHT22;24840;47.508;19.376;2023-10-09T04:02:16;7.20;99.90
39095;DHT22;24840;47.508;19.376;2023-10-09T04:04:42;7.30;99.90
39095;DHT22;24840;47.508;19.376;2023-10-09T04:07:13;7.40;99.90
39095;DHT22;24840;47.508;19.376;2023-10-09T04:09:42;7.30;99.90
39095;DHT22;24840;47.508;19.376;2023-10-09T04:12:12;7.30;99.90
39095;DHT22;24840;47.508;19.376;2023-10-09T04:14:45;7.40;99.90
39095;DHT22;24840;47.508;19.376;2023-10-09T04:17:26;7.40;99.90
39095;DHT22;24840;47.508;19.376;2023-10-09T04:19:55;7.50;99.90
39095;DHT22;24840;47.508;19.376;2023-10-09T04:22:40;7.50;99.90
39095;DHT22;24840;47.508;19.376;2023-10-09T04:25:20;7.50;99.90
39095;DHT22;24840;47.508;19.376;2023-10-09T04:27:57;7.60;99.90
39095;DHT22;24840;47.508;19.376;2023-10-09T04:30:38;7.60;99.90
39095;DHT22;24840;47.508;19.376;2023-10-09T04:33:12;7.50;99.90
39095;DHT22;24840;47.508;19.376;2023-10-09T04:36:04;7.60;99.90
39095;DHT22;24840;47.508;19.376;2023-10-09T04:38:49;7.60;99.90
39095;DHT22;24840;47.508;19.376;2023-10-09T04:41:30;7.70;99.90
39095;DHT22;24840;47.508;19.376;2023-10-09T04:44:17;7.80;99.90
39095;DHT22;24840;47.508;19.376;2023-10-09T04:46:46;7.70;99.90
39095;DHT22;24840;47.508;19.376;2023-10-09T04:49:35;7.70;99.90
39095;DHT22;24840;47.508;19.376;2023-10-09T04:52:13;7.70;99.90
39095;DHT22;24840;47.508;19.376;2023-10-09T04:54:51;7.70;99.90
39095;DHT22;24840;47.508;19.376;2023-10-09T04:57:44;7.70;99.90
39095;DHT22;24840;47.508;19.376;2023-10-09T05:00:14;7.70;99.90
39095;DHT22;24840;47.508;19.376;2023-10-09T05:02:56;7.60;99.90
39095;DHT22;24840;47.508;19.376;2023-10-09T05:05:28;7.70;99.90
39095;DHT22;24840;47.508;19.376;2023-10-09T05:08:15;7.90;99.90
39095;DHT22;24840;47.508;19.376;2023-10-09T05:10:51;7.90;99.90
39095;DHT22;24840;47.508;19.376;2023-10-09T05:13:33;7.90;99.90
39095;DHT22;24840;47.508;19.376;2023-10-09T05:16:08;7.90;99.90
39095;DHT22;24840;47.508;19.376;2023-10-09T05:18:45;8.00;99.90
39095;DHT22;24840;47.508;19.376;2023-10-09T05:21:42;8.00;99.90
39095;DHT22;24840;47.508;19.376;2023-10-09T05:24:08;8.10;99.90
39095;DHT22;24840;47.508;19.376;2023-10-09T05:26:37;8.10;99.90
39095;DHT22;24840;47.508;19.376;2023-10-09T05:29:32;8.10;99.90
39095;DHT22;24840;47.508;19.376;2023-10-09T05:32:23;8.10;99.90
39095;DHT22;24840;47.508;19.376;2023-10-09T05:35:00;8.20;99.90
39095;DHT22;24840;47.508;19.376;2023-10-09T05:37:27;8.30;99.90
39095;DHT22;24840;47.508;19.376;2023-10-09T05:40:06;8.30;99.90
39095;DHT22;24840;47.508;19.376;2023-10-09T05:42:52;8.30;99.90
39095;DHT22;24840;47.508;19.376;2023-10-09T05:45:25;8.30;99.90
39095;DHT22;24840;47.508;19.376;2023-10-09T05:48:29;8.20;99.90
39095;DHT22;24840;47.508;19.376;2023-10-09T05:51:04;8.20;99.90
39095;DHT22;24840;47.508;19.376;2023-10-09T05:53:55;8.40;99.90
39095;DHT22;24840;47.508;19.376;2023-10-09T05:56:37;8.40;99.90
39095;DHT22;24840;47.508;19.376;2023-10-09T05:59:21;8.50;99.90
39095;DHT22;24840;47.508;19.376;2023-10-09T06:02:05;8.50;99.90
39095;DHT22;24840;47.508;19.376;2023-10-09T06:05:03;8.50;99.90
39095;DHT22;24840;47.508;19.376;2023-10-09T06:07:45;8.50;99.90
39095;DHT22;24840;47.508;19.376;2023-10-09T06:10:29;8.60;99.90
39095;DHT22;24840;47.508;19.376;2023-10-09T06:13:04;8.60;99.90
39095;DHT22;24840;47.508;19.376;2023-10-09T06:15:38;8.70;99.90
39095;DHT22;24840;47.508;19.376;2023-10-09T06:18:13;8.80;99.90
39095;DHT22;24840;47.508;19.376;2023-10-09T06:20:57;8.80;99.30
39095;DHT22;24840;47.508;19.376;2023-10-09T06:23:41;8.80;97.70
39095;DHT22;24840;47.508;19.376;2023-10-09T06:26:30;8.90;97.00
39095;DHT22;24840;47.508;19.376;2023-10-09T06:28:58;9.00;96.30
39095;DHT22;24840;47.508;19.376;2023-10-09T06:31:56;9.00;94.10
39095;DHT22;24840;47.508;19.376;2023-10-09T06:34:28;9.10;94.80
39095;DHT22;24840;47.508;19.376;2023-10-09T06:37:10;9.00;94.20
39095;DHT22;24840;47.508;19.376;2023-10-09T06:39:52;9.00;93.70
39095;DHT22;24840;47.508;19.376;2023-10-09T06:42:25;9.10;93.40
39095;DHT22;24840;47.508;19.376;2023-10-09T06:45:10;9.30;93.40
39095;DHT22;24840;47.508;19.376;2023-10-09T06:47:42;9.30;91.10
39095;DHT22;24840;47.508;19.376;2023-10-09T06:50:19;9.30;91.10
39095;DHT22;24840;47.508;19.376;2023-10-09T06:52:45;9.30;91.90
39095;DHT22;24840;47.508;19.376;2023-10-09T06:55:25;9.40;91.20
39095;DHT22;24840;47.508;19.376;2023-10-09T06:58:09;9.50;91.40
39095;DHT22;24840;47.508;19.376;2023-10-09T07:00:41;9.50;88.10
39095;DHT22;24840;47.508;19.376;2023-10-09T07:03:27;9.60;90.10
39095;DHT22;24840;47.508;19.376;2023-10-09T07:06:08;9.70;89.50
39095;DHT22;24840;47.508;19.376;2023-10-09T07:08:58;9.60;88.20
39095;DHT22;24840;47.508;19.376;2023-10-09T07:11:40;9.80;89.50
39095;DHT22;24840;47.508;19.376;2023-10-09T07:16:56;9.80;86.80
39095;DHT22;24840;47.508;19.376;2023-10-09T07:19:45;9.80;87.70
39095;DHT22;24840;47.508;19.376;2023-10-09T07:22:11;9.90;87.10
39095;DHT22;24840;47.508;19.376;2023-10-09T07:24:50;9.90;85.90
39095;DHT22;24840;47.508;19.376;2023-10-09T07:27:29;9.90;86.30
39095;DHT22;24840;47.508;19.376;2023-10-09T07:30:18;9.90;85.60
39095;DHT22;24840;47.508;19.376;2023-10-09T07:33:04;9.90;83.20
39095;DHT22;24840;47.508;19.376;2023-10-09T07:35:40;10.10;86.60
39095;DHT22;24840;47.508;19.376;2023-10-09T07:38:11;10.20;85.50
39095;DHT22;24840;47.508;19.376;2023-10-09T07:40:40;10.40;85.30
39095;DHT22;24840;47.508;19.376;2023-10-09T07:43:25;10.30;82.70
39095;DHT22;24840;47.508;19.376;2023-10-09T07:46:26;10.50;82.70
39095;DHT22;24840;47.508;19.376;2023-10-09T07:49:24;10.60;81.40
39095;DHT22;24840;47.508;19.376;2023-10-09T07:51:53;11.00;81.70
39095;DHT22;24840;47.508;19.376;2023-10-09T07:54:19;11.20;80.00
39095;DHT22;24840;47.508;19.376;2023-10-09T07:56:58;10.80;77.40
39095;DHT22;24840;47.508;19.376;2023-10-09T07:59:35;10.80;79.10
39095;DHT22;24840;47.508;19.376;2023-10-09T08:02:07;10.70;77.50
39095;DHT22;24840;47.508;19.376;2023-10-09T08:04:39;11.00;77.50
39095;DHT22;24840;47.508;19.376;2023-10-09T08:07:09;11.20;77.20
39095;DHT22;24840;47.508;19.376;2023-10-09T08:09:36;11.40;77.50
39095;DHT22;24840;47.508;19.376;2023-10-09T08:12:15;11.30;76.70
39095;DHT22;24840;47.508;19.376;2023-10-09T08:14:59;11.50;78.10
39095;DHT22;24840;47.508;19.376;2023-10-09T08:17:50;11.70;77.40
39095;DHT22;24840;47.508;19.376;2023-10-09T08:20:29;11.60;75.90
39095;DHT22;24840;47.508;19.376;2023-10-09T08:23:24;11.90;77.70
39095;DHT22;24840;47.508;19.376;2023-10-09T08:28:38;12.00;74.80
39095;DHT22;24840;47.508;19.376;2023-10-09T08:31:14;11.90;75.70
39095;DHT22;24840;47.508;19.376;2023-10-09T08:33:58;11.60;72.30
39095;DHT22;24840;47.508;19.376;2023-10-09T08:36:28;11.50;73.30
39095;DHT22;24840;47.508;19.376;2023-10-09T08:38:55;11.60;74.60
39095;DHT22;24840;47.508;19.376;2023-10-09T08:41:25;11.70;74.60
39095;DHT22;24840;47.508;19.376;2023-10-09T08:43:56;11.60;73.60
39095;DHT22;24840;47.508;19.376;2023-10-09T08:46:27;11.50;73.10
39095;DHT22;24840;47.508;19.376;2023-10-09T08:48:58;11.70;74.80
39095;DHT22;24840;47.508;19.376;2023-10-09T08:51:26;11.60;72.70
39095;DHT22;24840;47.508;19.376;2023-10-09T08:53:52;11.70;74.10
39095;DHT22;24840;47.508;19.376;2023-10-09T08:56:20;11.60;74.10
39095;DHT22;24840;47.508;19.376;2023-10-09T08:58:54;11.50;71.60
39095;DHT22;24840;47.508;19.376;2023-10-09T09:01:20;11.60;72.90
39095;DHT22;24840;47.508;19.376;2023-10-09T09:03:48;11.60;73.90
39095;DHT22;24840;47.508;19.376;2023-10-09T09:06:16;11.70;73.70
39095;DHT22;24840;47.508;19.376;2023-10-09T09:08:43;11.80;73.80
39095;DHT22;24840;47.508;19.376;2023-10-09T09:11:17;11.80;72.00
39095;DHT22;24840;47.508;19.376;2023-10-09T09:14:02;11.90;72.50
39095;DHT22;24840;47.508;19.376;2023-10-09T09:16:31;12.00;71.90
39095;DHT22;24840;47.508;19.376;2023-10-09T09:19:02;12.10;72.70
39095;DHT22;24840;47.508;19.376;2023-10-09T09:21:28;12.20;71.90
39095;DHT22;24840;47.508;19.376;2023-10-09T09:24:00;12.40;73.70
39095;DHT22;24840;47.508;19.376;2023-10-09T09:26:39;12.70;74.40
39095;DHT22;24840;47.508;19.376;2023-10-09T09:29:12;12.60;69.20
39095;DHT22;24840;47.508;19.376;2023-10-09T09:31:38;12.40;69.50
39095;DHT22;24840;47.508;19.376;2023-10-09T09:34:07;12.50;71.50
39095;DHT22;24840;47.508;19.376;2023-10-09T09:36:53;12.60;72.00
39095;DHT22;24840;47.508;19.376;2023-10-09T09:39:26;12.60;69.90
39095;DHT22;24840;47.508;19.376;2023-10-09T09:41:59;12.80;70.80
39095;DHT22;24840;47.508;19.376;2023-10-09T09:44:35;12.70;69.50
39095;DHT22;24840;47.508;19.376;2023-10-09T09:47:14;12.40;68.90
39095;DHT22;24840;47.508;19.376;2023-10-09T09:49:52;12.40;71.30
39095;DHT22;24840;47.508;19.376;2023-10-09T09:52:31;12.50;72.00
39095;DHT22;24840;47.508;19.376;2023-10-09T09:55:08;12.40;69.60
39095;DHT22;24840;47.508;19.376;2023-10-09T09:57:44;12.40;71.30
39095;DHT22;24840;47.508;19.376;2023-10-09T10:00:12;12.50;71.50
39095;DHT22;24840;47.508;19.376;2023-10-09T10:03:05;12.60;69.70
39095;DHT22;24840;47.508;19.376;2023-10-09T10:05:31;12.50;71.00
39095;DHT22;24840;47.508;19.376;2023-10-09T10:07:59;12.50;69.20
39095;DHT22;24840;47.508;19.376;2023-10-09T10:10:41;12.40;68.70
39095;DHT22;24840;47.508;19.376;2023-10-09T10:13:15;12.40;68.90
39095;DHT22;24840;47.508;19.376;2023-10-09T10:18:31;12.80;70.80
39095;DHT22;24840;47.508;19.376;2023-10-09T10:21:10;12.90;68.40
39095;DHT22;24840;47.508;19.376;2023-10-09T10:23:42;13.20;67.50
39095;DHT22;24840;47.508;19.376;2023-10-09T10:26:22;13.00;66.20
39095;DHT22;24840;47.508;19.376;2023-10-09T10:29:18;13.00;69.10
39095;DHT22;24840;47.508;19.376;2023-10-09T10:32:00;12.80;71.10
39095;DHT22;24840;47.508;19.376;2023-10-09T10:34:53;12.90;72.20
39095;DHT22;24840;47.508;19.376;2023-10-09T10:37:35;13.00;72.10
39095;DHT22;24840;47.508;19.376;2023-10-09T10:40:10;13.20;72.90
39095;DHT22;24840;47.508;19.376;2023-10-09T10:42:58;13.60;73.40
39095;DHT22;24840;47.508;19.376;2023-10-09T10:45:45;14.20;70.80
39095;DHT22;24840;47.508;19.376;2023-10-09T10:48:13;14.40;68.50
39095;DHT22;24840;47.508;19.376;2023-10-09T10:50:58;14.60;68.70
39095;DHT22;24840;47.508;19.376;2023-10-09T10:53:24;14.90;67.60
39095;DHT22;24840;47.508;19.376;2023-10-09T10:56:01;15.30;67.10
39095;DHT22;24840;47.508;19.376;2023-10-09T10:58:43;16.90;67.40
39095;DHT22;24840;47.508;19.376;2023-10-09T11:01:20;17.60;60.00
39095;DHT22;24840;47.508;19.376;2023-10-09T11:03:50;16.50;60.70
39095;DHT22;24840;47.508;19.376;2023-10-09T11:06:29;16.10;62.00
39095;DHT22;24840;47.508;19.376;2023-10-09T11:09:03;16.30;62.10
39095;DHT22;24840;47.508;19.376;2023-10-09T11:11:50;17.20;60.10
39095;DHT22;24840;47.508;19.376;2023-10-09T11:14:20;17.90;61.10
39095;DHT22;24840;47.508;19.376;2023-10-09T11:16:50;17.40;60.90
39095;DHT22;24840;47.508;19.376;2023-10-09T11:19:21;17.30;59.30
39095;DHT22;24840;47.508;19.376;2023-10-09T11:21:53;16.60;60.30
39095;DHT22;24840;47.508;19.376;2023-10-09T11:24:39;16.20;61.30
39095;DHT22;24840;47.508;19.376;2023-10-09T11:27:09;16.50;61.30
39095;DHT22;24840;47.508;19.376;2023-10-09T11:29:51;16.90;64.30
39095;DHT22;24840;47.508;19.376;2023-10-09T11:32:21;16.80;61.00
39095;DHT22;24840;47.508;19.376;2023-10-09T11:35:13;17.50;62.60
39095;DHT22;24840;47.508;19.376;2023-10-09T11:37:57;17.40;60.60
39095;DHT22;24840;47.508;19.376;2023-10-09T11:40:33;17.00;61.10
39095;DHT22;24840;47.508;19.376;2023-10-09T11:43:20;16.60;58.70
39095;DHT22;24840;47.508;19.376;2023-10-09T11:46:14;16.20;59.80
39095;DHT22;24840;47.508;19.376;2023-10-09T11:49:09;16.40;61.30
39095;DHT22;24840;47.508;19.376;2023-10-09T11:52:05;15.90;61.20
39095;DHT22;24840;47.508;19.376;2023-10-09T11:54:38;15.70;60.60
39095;DHT22;24840;47.508;19.376;2023-10-09T11:57:04;15.60;62.00
39095;DHT22;24840;47.508;19.376;2023-10-09T11:59:31;15.30;62.20
39095;DHT22;24840;47.508;19.376;2023-10-09T12:02:07;15.30;63.80
39095;DHT22;24840;47.508;19.376;2023-10-09T12:04:37;15.20;64.10
39095;DHT22;24840;47.508;19.376;2023-10-09T12:07:11;15.30;63.20
39095;DHT22;24840;47.508;19.376;2023-10-09T12:09:37;15.60;64.70
39095;DHT22;24840;47.508;19.376;2023-10-09T12:12:07;15.90;65.50
39095;DHT22;24840;47.508;19.376;2023-10-09T12:14:37;15.40;61.70
39095;DHT22;24840;47.508;19.376;2023-10-09T12:17:07;15.30;62.30
39095;DHT22;24840;47.508;19.376;2023-10-09T12:19:37;15.30;63.10
39095;DHT22;24840;47.508;19.376;2023-10-09T12:22:05;15.30;64.20
39095;DHT22;24840;47.508;19.376;2023-10-09T12:24:32;15.10;63.10
39095;DHT22;24840;47.508;19.376;2023-10-09T12:26:59;15.10;64.10
39095;DHT22;24840;47.508;19.376;2023-10-09T12:29:26;15.00;63.70
39095;DHT22;24840;47.508;19.376;2023-10-09T12:31:58;15.10;68.80
39095;DHT22;24840;47.508;19.376;2023-10-09T12:34:27;15.40;67.20
39095;DHT22;24840;47.508;19.376;2023-10-09T12:36:57;15.80;65.70
39095;DHT22;24840;47.508;19.376;2023-10-09T12:39:29;16.20;64.40
39095;DHT22;24840;47.508;19.376;2023-10-09T12:42:06;16.30;63.50
39095;DHT22;24840;47.508;19.376;2023-10-09T12:44:35;16.80;64.70
39095;DHT22;24840;47.508;19.376;2023-10-09T12:47:07;16.80;62.60
39095;DHT22;24840;47.508;19.376;2023-10-09T12:49:37;16.60;62.30
39095;DHT22;24840;47.508;19.376;2023-10-09T12:52:09;16.20;63.40
39095;DHT22;24840;47.508;19.376;2023-10-09T12:54:45;15.90;65.10
39095;DHT22;24840;47.508;19.376;2023-10-09T12:57:12;15.70;66.30
39095;DHT22;24840;47.508;19.376;2023-10-09T12:59:40;15.80;67.90
39095;DHT22;24840;47.508;19.376;2023-10-09T13:02:14;15.70;73.10
39095;DHT22;24840;47.508;19.376;2023-10-09T13:04:54;15.80;73.90
39095;DHT22;24840;47.508;19.376;2023-10-09T13:07:20;15.70;74.30
39095;DHT22;24840;47.508;19.376;2023-10-09T13:09:48;15.60;77.30
39095;DHT22;24840;47.508;19.376;2023-10-09T13:12:34;15.50;81.30
39095;DHT22;24840;47.508;19.376;2023-10-09T13:15:05;15.40;82.90
39095;DHT22;24840;47.508;19.376;2023-10-09T13:17:36;15.30;74.20
39095;DHT22;24840;47.508;19.376;2023-10-09T13:20:03;15.20;80.50
39095;DHT22;24840;47.508;19.376;2023-10-09T13:22:49;15.10;76.70
39095;DHT22;24840;47.508;19.376;2023-10-09T13:25:17;15.10;85.00
39095;DHT22;24840;47.508;19.376;2023-10-09T13:27:50;15.00;87.00
39095;DHT22;24840;47.508;19.376;2023-10-09T13:30:19;14.70;88.20
39095;DHT22;24840;47.508;19.376;2023-10-09T13:32:51;14.60;91.50
39095;DHT22;24840;47.508;19.376;2023-10-09T13:35:18;14.70;91.90
39095;DHT22;24840;47.508;19.376;2023-10-09T13:37:47;14.60;93.40
39095;DHT22;24840;47.508;19.376;2023-10-09T13:40:22;14.50;93.00
39095;DHT22;24840;47.508;19.376;2023-10-09T13:42:57;14.40;93.40
39095;DHT22;24840;47.508;19.376;2023-10-09T13:45:25;14.00;95.00
39095;DHT22;24840;47.508;19.376;2023-10-09T13:47:56;14.10;96.00
39095;DHT22;24840;47.508;19.376;2023-10-09T13:50:25;14.00;95.40
39095;DHT22;24840;47.508;19.376;2023-10-09T13:53:09;13.90;96.20
39095;DHT22;24840;47.508;19.376;2023-10-09T13:55:37;13.90;96.80
39095;DHT22;24840;47.508;19.376;2023-10-09T13:58:09;13.90;96.10
39095;DHT22;24840;47.508;19.376;2023-10-09T14:00:39;13.80;96.60
39095;DHT22;24840;47.508;19.376;2023-10-09T14:03:08;13.80;97.30
39095;DHT22;24840;47.508;19.376;2023-10-09T14:05:40;13.80;97.40
39095;DHT22;24840;47.508;19.376;2023-10-09T14:08:22;13.70;97.50
39095;DHT22;24840;47.508;19.376;2023-10-09T14:10:51;13.70;98.20
39095;DHT22;24840;47.508;19.376;2023-10-09T14:13:17;13.80;98.10
39095;DHT22;24840;47.508;19.376;2023-10-09T14:15:52;13.80;98.30
39095;DHT22;24840;47.508;19.376;2023-10-09T14:18:20;13.70;98.50
39095;DHT22;24840;47.508;19.376;2023-10-09T14:20:46;13.80;98.50
39095;DHT22;24840;47.508;19.376;2023-10-09T14:23:12;13.80;99.30
39095;DHT22;24840;47.508;19.376;2023-10-09T14:25:46;13.80;99.90
39095;DHT22;24840;47.508;19.376;2023-10-09T14:28:15;13.80;99.90
39095;DHT22;24840;47.508;19.376;2023-10-09T14:30:45;13.70;99.80
39095;DHT22;24840;47.508;19.376;2023-10-09T14:33:14;13.60;99.90
39095;DHT22;24840;47.508;19.376;2023-10-09T14:35:48;13.70;99.90
39095;DHT22;24840;47.508;19.376;2023-10-09T14:38:14;13.60;99.90
39095;DHT22;24840;47.508;19.376;2023-10-09T14:40:44;13.60;99.90
39095;DHT22;24840;47.508;19.376;2023-10-09T14:43:11;13.70;99.90
39095;DHT22;24840;47.508;19.376;2023-10-09T14:45:46;13.70;99.90
39095;DHT22;24840;47.508;19.376;2023-10-09T14:48:17;13.70;99.90
39095;DHT22;24840;47.508;19.376;2023-10-09T14:50:53;13.70;99.90
39095;DHT22;24840;47.508;19.376;2023-10-09T14:53:22;13.50;99.90
39095;DHT22;24840;47.508;19.376;2023-10-09T14:55:58;13.50;99.90
39095;DHT22;24840;47.508;19.376;2023-10-09T14:58:27;13.40;99.90
39095;DHT22;24840;47.508;19.376;2023-10-09T15:00:55;13.30;99.90
39095;DHT22;24840;47.508;19.376;2023-10-09T15:03:21;13.20;99.90
39095;DHT22;24840;47.508;19.376;2023-10-09T15:05:47;13.10;99.90
39095;DHT22;24840;47.508;19.376;2023-10-09T15:08:13;13.10;99.90
39095;DHT22;24840;47.508;19.376;2023-10-09T15:10:50;13.10;99.90
39095;DHT22;24840;47.508;19.376;2023-10-09T15:13:17;13.10;99.90
39095;DHT22;24840;47.508;19.376;2023-10-09T15:15:44;13.20;99.90
39095;DHT22;24840;47.508;19.376;2023-10-09T15:18:11;13.30;99.90
39095;DHT22;24840;47.508;19.376;2023-10-09T15:20:38;13.20;99.90
39095;DHT22;24840;47.508;19.376;2023-10-09T15:23:06;13.20;99.90
39095;DHT22;24840;47.508;19.376;2023-10-09T15:25:32;13.10;99.90
39095;DHT22;24840;47.508;19.376;2023-10-09T15:28:02;13.00;99.90
39095;DHT22;24840;47.508;19.376;2023-10-09T15:30:29;13.10;99.90
39095;DHT22;24840;47.508;19.376;2023-10-09T15:32:57;13.20;99.90
39095;DHT22;24840;47.508;19.376;2023-10-09T15:35:23;13.20;99.90
39095;DHT22;24840;47.508;19.376;2023-10-09T15:37:49;13.10;99.90
39095;DHT22;24840;47.508;19.376;2023-10-09T15:40:18;13.10;99.90
39095;DHT22;24840;47.508;19.376;2023-10-09T15:42:49;13.00;99.90
39095;DHT22;24840;47.508;19.376;2023-10-09T15:45:19;12.80;99.90
39095;DHT22;24840;47.508;19.376;2023-10-09T15:47:47;12.80;99.90
39095;DHT22;24840;47.508;19.376;2023-10-09T15:50:13;12.80;99.90
39095;DHT22;24840;47.508;19.376;2023-10-09T15:52:40;12.80;99.90
39095;DHT22;24840;47.508;19.376;2023-10-09T15:55:09;12.70;99.90
39095;DHT22;24840;47.508;19.376;2023-10-09T15:57:42;12.70;99.90
39095;DHT22;24840;47.508;19.376;2023-10-09T16:00:08;12.60;99.90
39095;DHT22;24840;47.508;19.376;2023-10-09T16:02:44;12.60;99.90
39095;DHT22;24840;47.508;19.376;2023-10-09T16:05:10;12.50;99.90
39095;DHT22;24840;47.508;19.376;2023-10-09T16:07:40;12.50;99.90
39095;DHT22;24840;47.508;19.376;2023-10-09T16:10:07;12.40;99.90
39095;DHT22;24840;47.508;19.376;2023-10-09T16:12:40;12.30;99.90
39095;DHT22;24840;47.508;19.376;2023-10-09T16:15:08;12.30;99.90
39095;DHT22;24840;47.508;19.376;2023-10-09T16:17:34;12.20;99.90